sensor_id;sensor_type;location;lat;lon;timestamp;temperature;humidity
65378;SHT31;51982;51.042;13.806;2024-02-26T20:50:51;6.32;86.05
65378;SHT31;51982;51.042;13.806;2024-02-26T20:53:17;6.50;86.05
65378;SHT31;51982;51.042;13.806;2024-02-26T20:55:42;6.77;85.87
65378;SHT31;51982;51.042;13.806;2024-02-26T20:58:11;6.92;85.72
65378;SHT31;51982;51.042;13.806;2024-02-26T21:00:36;7.08;85.56
65378;SHT31;51982;51.042;13.806;2024-02-26T21:03:04;7.20;85.45
65378;SHT31;51982;51.042;13.806;2024-02-26T21:05:37;7.32;85.22
65378;SHT31;51982;51.042;13.806;2024-02-26T21:08:05;7.40;85.11
65378;SHT31;51982;51.042;13.806;2024-02-26T21:10:32;7.48;84.96
65378;SHT31;51982;51.042;13.806;2024-02-26T21:12:58;7.52;84.92
65378;SHT31;51982;51.042;13.806;2024-02-26T21:15:25;7.57;84.91
65378;SHT31;51982;51.042;13.806;2024-02-26T21:17:50;7.58;84.85
65378;SHT31;51982;51.042;13.806;2024-02-26T21:20:16;7.57;84.77
65378;SHT31;51982;51.042;13.806;2024-02-26T21:22:48;7.54;84.74
65378;SHT31;51982;51.042;13.806;2024-02-26T21:25:13;7.58;84.76
65378;SHT31;51982;51.042;13.806;2024-02-26T21:27:39;7.61;84.79
65378;SHT31;51982;51.042;13.806;2024-02-26T21:30:05;7.62;84.78
65378;SHT31;51982;51.042;13.806;2024-02-26T21:32:31;7.64;84.83
65378;SHT31;51982;51.042;13.806;2024-02-26T21:34:59;7.67;84.80
65378;SHT31;51982;51.042;13.806;2024-02-26T21:37:25;7.65;84.79
65378;SHT31;51982;51.042;13.806;2024-02-26T21:39:50;7.69;84.85
65378;SHT31;51982;51.042;13.806;2024-02-26T21:42:16;7.68;84.78
65378;SHT31;51982;51.042;13.806;2024-02-26T21:44:44;7.68;84.84
65378;SHT31;51982;51.042;13.806;2024-02-26T21:47:09;7.67;84.89
65378;SHT31;51982;51.042;13.806;2024-02-26T21:49:35;7.68;84.84
65378;SHT31;51982;51.042;13.806;2024-02-26T21:52:00;7.68;84.88
65378;SHT31;51982;51.042;13.806;2024-02-26T21:54:51;7.65;84.89
65378;SHT31;51982;51.042;13.806;2024-02-26T21:57:26;7.71;84.86
65378;SHT31;51982;51.042;13.806;2024-02-26T21:59:51;7.69;84.77
65378;SHT31;51982;51.042;13.806;2024-02-26T22:02:16;7.71;84.87
65378;SHT31;51982;51.042;13.806;2024-02-26T22:04:42;7.71;84.95
65378;SHT31;51982;51.042;13.806;2024-02-26T22:07:07;7.72;84.83
65378;SHT31;51982;51.042;13.806;2024-02-26T22:09:33;7.74;84.86
65378;SHT31;51982;51.042;13.806;2024-02-26T22:12:07;7.78;84.90
65378;SHT31;51982;51.042;13.806;2024-02-26T22:14:50;7.77;84.86
65378;SHT31;51982;51.042;13.806;2024-02-26T22:17:27;7.81;84.91
65378;SHT31;51982;51.042;13.806;2024-02-26T22:19:53;7.83;84.94
65378;SHT31;51982;51.042;13.806;2024-02-26T22:22:19;7.85;85.01
65378;SHT31;51982;51.042;13.806;2024-02-26T22:24:44;7.90;85.03
65378;SHT31;51982;51.042;13.806;2024-02-26T22:27:09;7.92;84.97
65378;SHT31;51982;51.042;13.806;2024-02-26T22:29:35;7.92;84.89
65378;SHT31;51982;51.042;13.806;2024-02-26T22:32:00;7.92;84.79
65378;SHT31;51982;51.042;13.806;2024-02-26T22:34:26;7.89;84.75
65378;SHT31;51982;51.042;13.806;2024-02-26T22:36:53;7.83;84.71
65378;SHT31;51982;51.042;13.806;2024-02-26T22:39:18;7.78;84.69
65378;SHT31;51982;51.042;13.806;2024-02-26T22:41:44;7.79;84.73
65378;SHT31;51982;51.042;13.806;2024-02-26T22:44:10;7.74;84.64
65378;SHT31;51982;51.042;13.806;2024-02-26T22:46:36;7.74;84.69
65378;SHT31;51982;51.042;13.806;2024-02-26T22:49:02;7.69;84.63
65378;SHT31;51982;51.042;13.806;2024-02-26T22:51:27;7.65;84.58
65378;SHT31;51982;51.042;13.806;2024-02-26T22:53:53;7.55;84.52
65378;SHT31;51982;51.042;13.806;2024-02-26T22:56:19;7.54;84.51
65378;SHT31;51982;51.042;13.806;2024-02-26T22:58:44;7.52;84.55
65378;SHT31;51982;51.042;13.806;2024-02-26T23:01:12;7.48;84.65
65378;SHT31;51982;51.042;13.806;2024-02-26T23:03:48;7.48;84.78
65378;SHT31;51982;51.042;13.806;2024-02-26T23:06:21;7.50;84.79
65378;SHT31;51982;51.042;13.806;2024-02-26T23:08:47;7.52;84.81
65378;SHT31;51982;51.042;13.806;2024-02-26T23:11:30;7.54;84.85
65378;SHT31;51982;51.042;13.806;2024-02-26T23:13:56;7.57;84.89
65378;SHT31;51982;51.042;13.806;2024-02-26T23:16:24;7.54;84.80
65378;SHT31;51982;51.042;13.806;2024-02-26T23:18:49;7.52;84.81
65378;SHT31;51982;51.042;13.806;2024-02-26T23:21:15;7.52;84.85
65378;SHT31;51982;51.042;13.806;2024-02-26T23:23:44;7.58;84.91
65378;SHT31;51982;51.042;13.806;2024-02-26T23:26:09;7.61;84.97
65378;SHT31;51982;51.042;13.806;2024-02-26T23:28:34;7.62;84.96
65378;SHT31;51982;51.042;13.806;2024-02-26T23:31:00;7.61;84.89
65378;SHT31;51982;51.042;13.806;2024-02-26T23:33:27;7.61;84.91
65378;SHT31;51982;51.042;13.806;2024-02-26T23:35:52;7.59;84.93
65378;SHT31;51982;51.042;13.806;2024-02-26T23:38:20;7.57;84.91
65378;SHT31;51982;51.042;13.806;2024-02-26T23:40:55;7.61;85.01
65378;SHT31;51982;51.042;13.806;2024-02-26T23:43:22;7.62;85.04
65378;SHT31;51982;51.042;13.806;2024-02-26T23:45:47;7.62;85.04
65378;SHT31;51982;51.042;13.806;2024-02-26T23:48:13;7.62;85.05
65378;SHT31;51982;51.042;13.806;2024-02-26T23:50:39;7.64;85.07
65378;SHT31;51982;51.042;13.806;2024-02-26T23:53:08;7.64;85.05
65378;SHT31;51982;51.042;13.806;2024-02-26T23:55:36;7.62;85.07
65378;SHT31;51982;51.042;13.806;2024-02-26T23:58:02;7.62;85.09
